createdAt,value
2023-05-12T00:01:31.861Z,12.99
2023-05-12T00:03:58.685Z,12.83
2023-05-12T00:06:26.213Z,13.00
2023-05-12T00:08:52.865Z,12.48
2023-05-12T00:11:19.469Z,12.99
2023-05-12T00:13:47.219Z,12.97
2023-05-12T00:16:15.589Z,12.98
2023-05-12T00:18:42.271Z,12.87
2023-05-12T00:21:09.051Z,13.00
2023-05-12T00:23:35.697Z,12.91
2023-05-12T00:26:07.270Z,12.58
2023-05-12T00:28:34.278Z,12.51
2023-05-12T00:31:03.648Z,13.00
2023-05-12T00:33:31.112Z,12.99
2023-05-12T00:36:00.375Z,12.79
2023-05-12T00:38:27.013Z,12.92
2023-05-12T00:40:53.609Z,12.86
2023-05-12T00:43:20.226Z,12.71
2023-05-12T00:45:47.253Z,12.72
2023-05-12T00:48:14.236Z,12.60
2023-05-12T00:50:40.910Z,12.68
2023-05-12T00:53:07.880Z,12.62
2023-05-12T00:55:34.556Z,12.67
2023-05-12T00:58:02.794Z,12.68
2023-05-12T01:00:29.598Z,12.43
2023-05-12T01:02:59.607Z,12.49
2023-05-12T01:05:55.907Z,12.59
2023-05-12T01:08:23.291Z,12.29
2023-05-12T01:10:50.276Z,12.45
2023-05-12T01:13:18.892Z,12.51
2023-05-12T01:15:48.237Z,12.56
2023-05-12T01:18:20.072Z,12.50
2023-05-12T01:20:48.222Z,12.09
2023-05-12T01:23:18.944Z,12.41
2023-05-12T01:25:50.154Z,12.48
2023-05-12T01:28:17.657Z,11.32
2023-05-12T01:30:45.061Z,12.31
2023-05-12T01:33:13.405Z,12.42
2023-05-12T01:35:40.133Z,12.39
2023-05-12T01:38:06.757Z,12.00
2023-05-12T01:40:37.380Z,12.42
2023-05-12T01:43:04.544Z,12.39
2023-05-12T01:45:33.420Z,12.49
2023-05-12T01:48:00.150Z,12.48
2023-05-12T01:50:27.189Z,12.37
2023-05-12T01:52:54.492Z,12.50
2023-05-12T01:55:21.211Z,12.46
2023-05-12T01:57:52.288Z,12.38
2023-05-12T02:00:21.488Z,12.40
2023-05-12T02:02:50.537Z,12.52
2023-05-12T02:05:17.475Z,12.49
2023-05-12T02:07:46.464Z,12.50
2023-05-12T02:10:13.728Z,12.50
2023-05-12T02:12:40.327Z,12.35
2023-05-12T02:15:07.329Z,12.41
2023-05-12T02:17:37.215Z,12.41
2023-05-12T02:20:05.789Z,12.43
2023-05-12T02:22:32.411Z,12.12
2023-05-12T02:24:59.195Z,12.05
2023-05-12T02:27:26.446Z,12.03
2023-05-12T02:29:54.032Z,12.48
2023-05-12T02:32:21.612Z,12.55
2023-05-12T02:34:50.314Z,12.49
2023-05-12T02:37:16.920Z,12.54
2023-05-12T02:39:43.583Z,12.19
2023-05-12T02:42:10.237Z,12.69
2023-05-12T02:44:36.896Z,12.65
2023-05-12T02:47:04.212Z,12.83
2023-05-12T02:49:30.799Z,12.67
2023-05-12T02:51:57.592Z,12.62
2023-05-12T02:54:24.295Z,12.71
2023-05-12T02:56:51.232Z,12.82
2023-05-12T02:59:17.910Z,12.83
2023-05-12T03:01:44.599Z,12.75
2023-05-12T03:04:11.354Z,12.81
2023-05-12T03:06:37.912Z,12.42
2023-05-12T03:09:05.538Z,12.85
2023-05-12T03:11:32.277Z,12.60
2023-05-12T03:13:58.852Z,12.96
2023-05-12T03:16:25.417Z,12.88
2023-05-12T03:18:53.639Z,12.94
2023-05-12T03:21:20.348Z,12.82
2023-05-12T03:23:47.140Z,12.94
2023-05-12T03:26:13.833Z,12.78
2023-05-12T03:28:41.510Z,13.04
2023-05-12T03:31:08.204Z,13.09
2023-05-12T03:33:34.824Z,12.99
2023-05-12T03:36:01.865Z,13.12
2023-05-12T03:38:28.768Z,13.09
2023-05-12T03:41:08.370Z,12.82
2023-05-12T03:43:35.941Z,12.95
2023-05-12T03:46:03.723Z,13.19
2023-05-12T03:48:30.619Z,13.14
2023-05-12T03:50:57.258Z,13.16
2023-05-12T03:53:23.894Z,13.13
2023-05-12T03:55:50.610Z,13.12
2023-05-12T03:58:17.407Z,13.17
2023-05-12T04:00:44.602Z,13.21
2023-05-12T04:03:11.320Z,13.16
2023-05-12T04:05:39.470Z,13.32
2023-05-12T04:08:06.225Z,13.22
2023-05-12T04:10:32.907Z,13.30
2023-05-12T04:12:59.416Z,13.40
2023-05-12T04:15:27.439Z,12.96
2023-05-12T04:17:54.133Z,13.51
2023-05-12T04:20:21.008Z,12.99
2023-05-12T04:22:47.908Z,13.46
2023-05-12T04:25:16.600Z,13.42
2023-05-12T04:27:43.181Z,13.60
2023-05-12T04:30:09.822Z,13.55
2023-05-12T04:32:38.791Z,13.49
2023-05-12T04:35:06.698Z,13.53
2023-05-12T04:37:34.398Z,13.59
2023-05-12T04:40:01.278Z,13.59
2023-05-12T04:42:28.361Z,13.60
2023-05-12T04:44:56.627Z,13.75
2023-05-12T04:47:23.499Z,13.73
2023-05-12T04:49:50.094Z,13.70
2023-05-12T04:52:16.809Z,13.76
2023-05-12T04:54:43.667Z,13.79
2023-05-12T04:57:10.531Z,13.85
2023-05-12T04:59:38.432Z,13.61
2023-05-12T05:02:06.663Z,13.85
2023-05-12T05:04:33.595Z,13.93
2023-05-12T05:07:00.441Z,13.95
2023-05-12T05:09:28.177Z,13.99
2023-05-12T05:11:54.909Z,14.05
2023-05-12T05:14:21.996Z,14.22
2023-05-12T05:16:48.839Z,13.97
2023-05-12T05:19:23.453Z,14.14
2023-05-12T05:21:56.931Z,14.32
2023-05-12T05:24:23.465Z,14.30
2023-05-12T05:26:50.155Z,13.95
2023-05-12T05:29:17.332Z,14.34
2023-05-12T05:31:44.334Z,14.40
2023-05-12T05:34:11.357Z,14.45
2023-05-12T05:36:37.952Z,14.52
2023-05-12T05:39:04.902Z,14.27
2023-05-12T05:41:31.626Z,14.64
2023-05-12T05:43:58.248Z,14.82
2023-05-12T05:46:25.058Z,14.81
2023-05-12T05:48:51.842Z,14.95
2023-05-12T05:51:18.465Z,15.00
2023-05-12T05:53:44.958Z,15.06
2023-05-12T05:56:13.162Z,15.24
2023-05-12T05:58:39.852Z,15.28
2023-05-12T06:01:07.308Z,15.23
2023-05-12T06:03:35.162Z,15.39
2023-05-12T06:06:02.016Z,15.36
2023-05-12T06:08:28.823Z,15.32
2023-05-12T06:10:57.497Z,15.34
2023-05-12T06:13:24.109Z,15.00
2023-05-12T06:15:50.940Z,15.38
2023-05-12T06:18:17.517Z,15.47
2023-05-12T06:20:44.110Z,15.53
2023-05-12T06:23:10.786Z,15.67
2023-05-12T06:25:38.762Z,15.34
2023-05-12T06:28:05.563Z,15.95
2023-05-12T06:30:32.124Z,16.13
2023-05-12T06:32:59.475Z,16.32
2023-05-12T06:35:26.243Z,15.99
2023-05-12T06:37:52.776Z,16.34
2023-05-12T06:40:19.311Z,16.71
2023-05-12T06:42:46.693Z,16.87
2023-05-12T06:45:19.846Z,16.84
2023-05-12T06:47:46.650Z,16.79
2023-05-12T06:50:13.322Z,17.07
2023-05-12T06:52:40.572Z,17.46
2023-05-12T06:55:07.589Z,17.72
2023-05-12T06:57:34.171Z,17.92
2023-05-12T07:00:02.945Z,18.29
2023-05-12T07:02:30.407Z,18.54
2023-05-12T07:04:57.157Z,18.68
2023-05-12T07:07:23.761Z,18.68
2023-05-12T07:09:50.571Z,18.97
2023-05-12T07:12:17.092Z,18.98
2023-05-12T07:14:43.601Z,17.91
2023-05-12T07:17:10.160Z,19.01
2023-05-12T07:19:36.692Z,19.15
2023-05-12T07:22:03.569Z,19.63
2023-05-12T07:24:30.181Z,19.44
2023-05-12T07:26:56.778Z,19.77
2023-05-12T07:29:23.375Z,19.58
2023-05-12T07:31:50.042Z,19.95
2023-05-12T07:34:16.780Z,19.97
2023-05-12T07:36:44.313Z,20.31
2023-05-12T07:39:11.078Z,20.45
2023-05-12T07:41:39.398Z,20.33
2023-05-12T07:44:06.094Z,20.43
2023-05-12T07:46:32.805Z,20.53
2023-05-12T07:48:59.312Z,20.54
2023-05-12T07:51:25.938Z,20.88
2023-05-12T07:53:53.037Z,21.29
2023-05-12T07:56:19.555Z,21.37
2023-05-12T07:58:47.504Z,21.17
2023-05-12T08:01:14.356Z,21.09
2023-05-12T08:03:41.053Z,20.97
2023-05-12T08:06:07.715Z,20.75
2023-05-12T08:08:34.793Z,20.10
2023-05-12T08:11:01.341Z,20.25
2023-05-12T08:13:27.917Z,19.85
2023-05-12T08:15:54.464Z,19.87
2023-05-12T08:18:21.215Z,19.97
2023-05-12T08:20:50.055Z,20.09
2023-05-12T08:23:17.542Z,20.09
2023-05-12T08:25:44.572Z,20.24
2023-05-12T08:28:12.710Z,20.03
2023-05-12T08:30:39.422Z,20.57
2023-05-12T08:33:06.215Z,20.66
2023-05-12T08:35:33.090Z,20.73
2023-05-12T08:37:59.657Z,20.77
2023-05-12T08:40:30.089Z,20.89
2023-05-12T08:43:27.002Z,21.20
2023-05-12T08:45:57.673Z,21.47
2023-05-12T08:48:29.140Z,21.39
2023-05-12T08:50:57.601Z,21.11
2023-05-12T08:53:25.992Z,21.39
2023-05-12T08:57:08.966Z,21.43
2023-05-12T08:58:42.003Z,21.28
2023-05-12T09:01:11.857Z,21.03
2023-05-12T09:03:38.975Z,20.63
2023-05-12T09:06:06.775Z,20.70
2023-05-12T09:08:35.003Z,20.44
2023-05-12T09:11:02.175Z,20.38
2023-05-12T09:13:54.067Z,20.36
2023-05-12T09:16:24.830Z,19.97
2023-05-12T09:18:55.363Z,19.27
2023-05-12T09:21:22.593Z,19.92
2023-05-12T09:23:53.364Z,20.06
2023-05-12T09:26:21.106Z,19.99
2023-05-12T09:28:47.680Z,19.97
2023-05-12T09:31:22.958Z,19.98
2023-05-12T09:33:51.279Z,20.64
2023-05-12T09:36:19.509Z,20.80
2023-05-12T09:38:46.077Z,21.11
2023-05-12T09:41:12.833Z,21.22
2023-05-12T09:43:46.003Z,21.72
2023-05-12T09:46:12.693Z,22.03
2023-05-12T09:48:39.343Z,22.50
2023-05-12T09:51:10.822Z,23.15
2023-05-12T09:53:42.883Z,22.85
2023-05-12T09:56:09.615Z,23.45
2023-05-12T09:58:38.466Z,23.60
2023-05-12T10:01:21.651Z,23.73
2023-05-12T10:03:57.361Z,23.92
2023-05-12T10:06:42.548Z,24.53
2023-05-12T10:09:34.030Z,24.46
2023-05-12T10:12:04.288Z,24.16
2023-05-12T10:14:31.727Z,23.96
2023-05-12T10:16:59.702Z,23.90
2023-05-12T10:19:26.981Z,24.36
2023-05-12T10:21:55.828Z,25.02
2023-05-12T10:24:27.886Z,25.05
2023-05-12T10:26:59.470Z,25.20
2023-05-12T10:29:30.444Z,26.64
2023-05-12T10:31:58.107Z,27.52
2023-05-12T10:34:33.499Z,27.71
2023-05-12T10:37:00.366Z,28.17
2023-05-12T10:39:32.785Z,28.35
2023-05-12T10:42:07.136Z,27.76
2023-05-12T10:44:34.333Z,28.07
2023-05-12T10:47:00.893Z,28.05
2023-05-12T10:49:37.344Z,27.62
2023-05-12T10:52:03.986Z,27.59
2023-05-12T10:54:39.428Z,27.40
2023-05-12T10:57:16.810Z,27.48
2023-05-12T10:59:53.104Z,27.52
2023-05-12T11:02:27.616Z,27.06
2023-05-12T11:04:59.943Z,26.57
2023-05-12T11:07:32.841Z,27.19
2023-05-12T11:10:02.004Z,27.03
2023-05-12T11:12:35.441Z,27.14
2023-05-12T11:15:03.705Z,27.56
2023-05-12T11:17:30.578Z,27.54
2023-05-12T11:19:58.060Z,27.39
2023-05-12T11:22:25.031Z,27.60
2023-05-12T11:24:52.819Z,27.36
2023-05-12T11:27:22.542Z,27.06
2023-05-12T11:30:00.822Z,27.00
2023-05-12T11:32:28.045Z,26.45
2023-05-12T11:34:54.980Z,26.80
2023-05-12T11:37:22.473Z,27.77
2023-05-12T11:39:49.134Z,27.26
2023-05-12T11:42:17.770Z,26.78
2023-05-12T11:44:48.301Z,25.68
2023-05-12T11:47:16.524Z,25.51
2023-05-12T11:49:48.229Z,25.78
2023-05-12T11:52:15.579Z,25.96
2023-05-12T11:55:10.282Z,26.26
2023-05-12T11:57:37.156Z,26.61
2023-05-12T12:00:05.327Z,26.70
2023-05-12T12:02:37.447Z,26.52
2023-05-12T12:05:05.875Z,26.46
2023-05-12T12:07:35.459Z,26.23
2023-05-12T12:10:17.250Z,25.86
2023-05-12T12:12:44.626Z,24.76
2023-05-12T12:15:11.978Z,25.75
2023-05-12T12:17:39.846Z,25.86
2023-05-12T12:20:08.131Z,25.46
2023-05-12T12:22:35.230Z,25.77
2023-05-12T12:25:02.926Z,25.86
2023-05-12T12:27:29.886Z,25.60
2023-05-12T12:29:56.541Z,25.51
2023-05-12T12:32:23.157Z,25.43
2023-05-12T12:34:49.720Z,25.37
2023-05-12T12:37:17.198Z,25.55
2023-05-12T12:39:43.930Z,25.29
2023-05-12T12:42:10.423Z,25.74
2023-05-12T12:44:36.988Z,25.67
2023-05-12T12:47:04.311Z,25.62
2023-05-12T12:49:30.951Z,26.00
2023-05-12T12:51:57.707Z,26.47
2023-05-12T12:54:27.002Z,26.87
2023-05-12T12:56:54.080Z,26.95
2023-05-12T12:59:20.785Z,27.40
2023-05-12T13:01:47.349Z,27.77
2023-05-12T13:04:13.953Z,27.57
2023-05-12T13:06:40.960Z,27.80
2023-05-12T13:09:07.679Z,28.01
2023-05-12T13:11:34.651Z,28.35
2023-05-12T13:14:02.310Z,27.99
2023-05-12T13:16:30.015Z,28.24
2023-05-12T13:18:56.771Z,28.46
2023-05-12T13:21:23.430Z,28.60
2023-05-12T13:23:50.078Z,28.26
2023-05-12T13:26:16.709Z,27.70
2023-05-12T13:28:43.449Z,27.80
2023-05-12T13:31:10.291Z,27.39
2023-05-12T13:33:36.893Z,28.05
2023-05-12T13:36:03.573Z,28.31
2023-05-12T13:38:30.790Z,28.83
2023-05-12T13:40:57.407Z,28.42
2023-05-12T13:43:23.968Z,28.36
2023-05-12T13:45:50.975Z,29.09
2023-05-12T13:48:17.663Z,29.65
2023-05-12T13:50:44.364Z,30.83
2023-05-12T13:53:12.553Z,31.52
2023-05-12T13:55:40.738Z,32.15
2023-05-12T13:58:07.699Z,30.74
2023-05-12T14:00:34.234Z,29.51
2023-05-12T14:03:01.641Z,28.83
2023-05-12T14:05:28.521Z,28.23
2023-05-12T14:07:55.126Z,27.48
2023-05-12T14:10:21.641Z,27.08
2023-05-12T14:12:48.302Z,27.00
2023-05-12T14:15:26.620Z,27.26
2023-05-12T14:18:01.349Z,28.33
2023-05-12T14:20:27.919Z,29.80
2023-05-12T14:22:54.462Z,30.06
2023-05-12T14:25:21.343Z,31.59
2023-05-12T14:27:48.050Z,31.19
2023-05-12T14:30:14.826Z,31.57
2023-05-12T14:32:41.496Z,32.17
2023-05-12T14:35:10.232Z,32.86
2023-05-12T14:37:37.405Z,33.50
2023-05-12T14:40:05.386Z,33.54
2023-05-12T14:42:32.296Z,33.59
2023-05-12T14:44:59.324Z,32.66
2023-05-12T14:47:26.024Z,32.13
2023-05-12T14:49:52.693Z,33.20
2023-05-12T14:52:19.299Z,34.00
2023-05-12T14:54:45.864Z,32.82
2023-05-12T14:57:13.552Z,30.97
2023-05-12T14:59:40.202Z,29.32
2023-05-12T15:02:07.514Z,29.45
2023-05-12T15:04:34.125Z,30.31
2023-05-12T15:07:00.666Z,31.34
2023-05-12T15:09:27.227Z,32.20
2023-05-12T15:11:53.989Z,33.22
2023-05-12T15:14:20.568Z,33.78
2023-05-12T15:16:47.327Z,33.69
2023-05-12T15:19:15.118Z,34.33
2023-05-12T15:21:41.677Z,34.85
2023-05-12T15:24:08.501Z,35.55
2023-05-12T15:26:37.563Z,33.59
2023-05-12T15:29:06.099Z,30.08
2023-05-12T15:31:32.714Z,26.30
2023-05-12T15:33:59.281Z,23.35
2023-05-12T15:36:25.878Z,21.50
2023-05-12T15:38:52.444Z,20.42
2023-05-12T15:41:19.060Z,19.55
2023-05-12T15:43:45.575Z,18.77
2023-05-12T15:46:12.251Z,18.26
2023-05-12T15:48:39.433Z,17.38
2023-05-12T15:51:06.650Z,16.85
2023-05-12T15:53:33.516Z,17.15
2023-05-12T15:56:00.990Z,16.95
2023-05-12T15:58:28.367Z,16.99
2023-05-12T16:00:55.412Z,16.52
2023-05-12T16:03:22.725Z,17.00
2023-05-12T16:05:49.759Z,17.03
2023-05-12T16:08:17.543Z,16.71
2023-05-12T16:10:44.183Z,17.27
2023-05-12T16:13:10.818Z,17.25
2023-05-12T16:15:37.338Z,17.37
2023-05-12T16:18:05.829Z,17.49
2023-05-12T16:20:33.691Z,17.52
2023-05-12T16:23:00.368Z,17.82
2023-05-12T16:25:27.005Z,17.52
2023-05-12T16:27:53.719Z,18.06
2023-05-12T16:30:20.584Z,17.67
2023-05-12T16:32:47.476Z,18.01
2023-05-12T16:35:14.368Z,17.92
2023-05-12T16:37:41.346Z,18.06
2023-05-12T16:40:09.657Z,18.06
2023-05-12T16:42:37.113Z,18.14
2023-05-12T16:45:05.128Z,18.08
2023-05-12T16:47:31.754Z,18.28
2023-05-12T16:49:59.803Z,18.24
2023-05-12T16:52:26.999Z,18.36
2023-05-12T16:54:56.438Z,17.95
2023-05-12T16:57:24.139Z,17.84
2023-05-12T16:59:50.746Z,17.66
2023-05-12T17:02:17.436Z,17.96
2023-05-12T17:04:44.726Z,17.77
2023-05-12T17:07:11.478Z,17.63
2023-05-12T17:09:38.184Z,17.52
2023-05-12T17:12:06.685Z,17.55
2023-05-12T17:14:34.801Z,17.41
2023-05-12T17:17:01.474Z,17.24
2023-05-12T17:19:28.415Z,17.23
2023-05-12T17:21:55.034Z,17.19
2023-05-12T17:24:21.796Z,16.80
2023-05-12T17:26:48.383Z,16.88
2023-05-12T17:29:14.995Z,16.89
2023-05-12T17:31:41.548Z,16.96
2023-05-12T17:34:08.184Z,16.94
2023-05-12T17:36:34.809Z,17.13
2023-05-12T17:39:02.153Z,17.16
2023-05-12T17:41:29.484Z,17.14
2023-05-12T17:43:56.118Z,17.20
2023-05-12T17:46:23.030Z,17.23
2023-05-12T17:48:49.998Z,17.34
2023-05-12T17:51:16.971Z,17.34
2023-05-12T17:53:43.728Z,16.97
2023-05-12T17:56:10.432Z,17.63
2023-05-12T17:58:36.971Z,17.84
2023-05-12T18:01:03.612Z,17.89
2023-05-12T18:03:30.295Z,17.82
2023-05-12T18:05:56.936Z,17.76
2023-05-12T18:08:23.535Z,17.47
2023-05-12T18:10:50.354Z,17.72
2023-05-12T18:13:17.048Z,17.27
2023-05-12T18:15:43.677Z,18.06
2023-05-12T18:18:10.908Z,17.67
2023-05-12T18:20:37.714Z,18.36
2023-05-12T18:23:04.694Z,18.08
2023-05-12T18:25:31.335Z,18.09
2023-05-12T18:27:57.917Z,17.57
2023-05-12T18:30:24.514Z,18.01
2023-05-12T18:32:51.137Z,17.76
2023-05-12T18:35:17.991Z,17.39
2023-05-12T18:37:44.741Z,17.46
2023-05-12T18:40:12.092Z,17.54
2023-05-12T18:42:38.850Z,17.30
2023-05-12T18:45:06.100Z,17.11
2023-05-12T18:47:33.482Z,16.83
2023-05-12T18:50:00.223Z,16.96
2023-05-12T18:52:26.999Z,16.17
2023-05-12T18:54:53.666Z,16.69
2023-05-12T18:57:20.792Z,16.74
2023-05-12T18:59:47.446Z,16.61
2023-05-12T19:02:14.001Z,16.59
2023-05-12T19:04:40.762Z,16.43
2023-05-12T19:07:09.695Z,16.49
2023-05-12T19:09:37.077Z,16.30
2023-05-12T19:12:05.871Z,16.25
2023-05-12T19:14:32.723Z,16.26
2023-05-12T19:16:59.278Z,16.12
2023-05-12T19:19:25.955Z,15.96
2023-05-12T19:21:52.599Z,15.62
2023-05-12T19:24:19.422Z,15.72
2023-05-12T19:26:46.084Z,15.60
2023-05-12T19:29:12.695Z,15.03
2023-05-12T19:31:39.425Z,15.37
2023-05-12T19:34:07.005Z,15.36
2023-05-12T19:36:34.118Z,15.06
2023-05-12T19:39:01.133Z,15.14
2023-05-12T19:41:28.966Z,15.10
2023-05-12T19:43:56.409Z,14.96
2023-05-12T19:46:23.453Z,15.25
2023-05-12T19:48:51.216Z,15.26
2023-05-12T19:51:17.877Z,15.33
2023-05-12T19:53:44.577Z,15.39
2023-05-12T19:56:11.322Z,15.29
2023-05-12T19:58:38.377Z,15.87
2023-05-12T20:01:05.187Z,15.88
2023-05-12T20:03:31.910Z,16.20
2023-05-12T20:05:58.871Z,16.16
2023-05-12T20:08:25.674Z,16.38
2023-05-12T20:10:52.254Z,16.33
2023-05-12T20:13:18.846Z,16.36
2023-05-12T20:15:45.629Z,16.54
2023-05-12T20:18:14.679Z,16.39
2023-05-12T20:20:42.996Z,15.95
2023-05-12T20:23:09.856Z,16.47
2023-05-12T20:25:36.841Z,16.11
2023-05-12T20:28:03.825Z,16.20
2023-05-12T20:30:30.556Z,16.34
2023-05-12T20:32:57.096Z,16.21
2023-05-12T20:35:23.878Z,16.11
2023-05-12T20:37:50.754Z,15.82
2023-05-12T20:40:17.483Z,15.98
2023-05-12T20:42:45.977Z,15.87
2023-05-12T20:45:13.681Z,15.98
2023-05-12T20:47:40.484Z,15.72
2023-05-12T20:50:08.300Z,16.00
2023-05-12T20:52:40.070Z,15.99
2023-05-12T20:55:07.535Z,15.06
2023-05-12T20:57:34.217Z,15.88
2023-05-12T21:00:01.351Z,15.82
2023-05-12T21:02:28.982Z,15.80
2023-05-12T21:04:56.114Z,15.77
2023-05-12T21:07:22.741Z,15.82
2023-05-12T21:09:49.437Z,15.02
2023-05-12T21:12:16.059Z,15.44
2023-05-12T21:14:44.046Z,15.60
2023-05-12T21:17:12.006Z,15.46
2023-05-12T21:19:39.874Z,15.36
2023-05-12T21:22:08.955Z,15.26
2023-05-12T21:24:37.319Z,14.89
2023-05-12T21:27:05.615Z,14.81
2023-05-12T21:29:33.106Z,15.23
2023-05-12T21:32:00.528Z,15.10
2023-05-12T21:34:27.772Z,14.61
2023-05-12T21:36:54.765Z,14.91
2023-05-12T21:39:21.880Z,15.00
2023-05-12T21:41:48.784Z,14.97
2023-05-12T21:44:15.402Z,14.90
2023-05-12T21:46:42.658Z,14.96
2023-05-12T21:49:09.561Z,14.72
2023-05-12T21:51:36.231Z,14.67
2023-05-12T21:54:03.019Z,14.84
2023-05-12T21:56:29.688Z,14.32
2023-05-12T21:58:56.314Z,14.80
2023-05-12T22:01:22.882Z,14.60
2023-05-12T22:03:49.933Z,14.78
2023-05-12T22:06:16.773Z,14.71
2023-05-12T22:08:43.459Z,14.78
2023-05-12T22:11:10.749Z,14.73
2023-05-12T22:13:37.413Z,14.77
2023-05-12T22:16:04.346Z,14.72
2023-05-12T22:18:31.667Z,14.70
2023-05-12T22:20:58.824Z,14.47
2023-05-12T22:23:25.801Z,14.61
2023-05-12T22:25:52.501Z,14.88
2023-05-12T22:28:19.132Z,14.44
2023-05-12T22:30:45.852Z,14.96
2023-05-12T22:33:12.556Z,14.93
2023-05-12T22:35:39.072Z,15.13
2023-05-12T22:38:05.826Z,14.70
2023-05-12T22:40:33.656Z,14.92
2023-05-12T22:43:00.282Z,15.38
2023-05-12T22:45:26.957Z,15.46
2023-05-12T22:47:53.937Z,15.48
2023-05-12T22:50:21.040Z,15.43
2023-05-12T22:52:47.831Z,15.35
2023-05-12T22:55:14.387Z,15.41
2023-05-12T22:57:43.504Z,15.32
2023-05-12T23:00:10.539Z,14.89
2023-05-12T23:02:37.135Z,15.26
2023-05-12T23:05:04.210Z,15.28
2023-05-12T23:07:31.127Z,15.21
2023-05-12T23:09:57.799Z,15.16
2023-05-12T23:12:24.375Z,14.95
2023-05-12T23:14:51.009Z,14.95
2023-05-12T23:17:17.594Z,15.03
2023-05-12T23:19:44.214Z,15.05
2023-05-12T23:22:10.792Z,15.06
2023-05-12T23:24:38.170Z,14.52
2023-05-12T23:27:04.937Z,14.91
2023-05-12T23:29:31.573Z,15.03
2023-05-12T23:31:58.798Z,15.01
2023-05-12T23:34:25.664Z,14.86
2023-05-12T23:36:52.415Z,14.91
2023-05-12T23:39:19.062Z,15.04
2023-05-12T23:41:45.858Z,15.05
2023-05-12T23:44:12.821Z,14.93
2023-05-12T23:46:39.533Z,15.00
2023-05-12T23:49:06.422Z,15.04
2023-05-12T23:51:34.311Z,15.05
2023-05-12T23:54:00.912Z,14.14
2023-05-12T23:56:27.487Z,15.16
2023-05-12T23:58:54.264Z,15.23
